Bookmark and Share
Track history (hours):
 

Iron Queen

Last reported at 2014-Apr-16 10:11 UTC. Time now 2014-Apr-16 16:11 UTC.
Position N 38°09' E 024°45'.

; draft 14.5 m.

Type: Cargo ship. MMSI: 234112000.

NotesDate/timePositionNaut miles runAvg speedWind from/ knotsBaromVisibWave heightAir tempDewpointWater temp
2014-Apr-16 10:11N 38°09' E 024°45'1911.4
2014-Apr-16 08:30N 37°51' E 024°36'1111.4
2014-Apr-16 07:33N 37°41' E 024°31'1110.9
2014-Apr-16 06:33N 37°32' E 024°23'1312.9
2014-Apr-16 05:33N 37°22' E 024°13'4410.9
2014-Apr-16 01:33N 36°46' E 023°42'1610.8
2014-Apr-16 00:07N 36°32' E 023°34'1011.2
2014-Apr-15 23:14N 36°24' E 023°27'811.1
2014-Apr-15 22:33N 36°17' E 023°22'52510.9
2014-Apr-13 22:10N 36°57' E 012°29'3111.1
2014-Apr-13 19:20N 37°07' E 011°52'810.9
2014-Apr-13 18:33N 37°10' E 011°42'1111.1
2014-Apr-13 17:33N 37°15' E 011°29'1111.3
2014-Apr-13 16:33N 37°19' E 011°17'1211.6
2014-Apr-13 15:33N 37°25' E 011°04'2311.5
2014-Apr-13 13:33N 37°31' E 010°36'12811.5
2014-Apr-13 02:27N 37°37' E 007°55'910.6
2014-Apr-13 01:33N 37°36' E 007°43'10 9.9
2014-Apr-13 00:33N 37°36' E 007°31'1010.0
2014-Apr-12 23:31N 37°34' E 007°18'2310.9
2014-Apr-12 21:26N 37°32' E 006°49'3510.7
2014-Apr-12 18:12N 37°27' E 006°06'811.4
2014-Apr-12 17:32N 37°27' E 005°56'1210.8
2014-Apr-12 16:27N 37°26' E 005°42'3511.5
2014-Apr-12 13:23N 37°21' E 004°58'1012.0
2014-Apr-12 12:34N 37°20' E 004°45'1211.5
2014-Apr-12 11:33N 37°19' E 004°31'1511.6
2014-Apr-12 10:15N 37°18' E 004°12'1211.1
2014-Apr-12 09:09N 37°17' E 003°57'710.6
2014-Apr-12 08:29N 37°16' E 003°48'5110.2
2014-Apr-12 03:30N 37°08' E 002°45'1212.3
2014-Apr-12 02:33N 37°05' E 002°30'20511.4
2014-Apr-11 08:33N 36°27' W 001°41'16311.6
2014-Apr-10 18:27N 36°04' W 005°02'1011.6
2014-Apr-10 17:33N 36°05' W 005°15'7 7.4
2014-Apr-10 16:33N 36°05' W 005°24'0 0.3
2014-Apr-10 15:33N 36°05' W 005°23'3 2.7
2014-Apr-10 14:33N 36°02' W 005°24'6 6.2
2014-Apr-10 13:33N 35°58' W 005°29'11 9.6
2014-Apr-10 12:22N 35°55' W 005°42'911.4
2014-Apr-10 11:33N 35°54' W 005°54'13511.2
2014-Apr-09 23:33N 35°54' W 008°40'1111.4
2014-Apr-09 22:33N 35°53' W 008°54'  
2014-Apr-07 08:12N 35°60' W 023°48'810.5
2014-Apr-07 07:26N 35°60' W 023°58'1110.7
2014-Apr-07 06:25N 35°60' W 024°12'910.8
2014-Apr-07 05:33N 35°60' W 024°23'1110.7
2014-Apr-07 04:33N 35°60' W 024°36'1110.8
2014-Apr-07 03:33N 36°00' W 024°50'1110.7
2014-Apr-07 02:33N 35°60' W 025°03'1110.8
2014-Apr-07 01:33N 35°59' W 025°16'1110.9
2014-Apr-07 00:33N 35°59' W 025°30'1111.1
2014-Apr-06 23:33N 35°58' W 025°43'1110.9
2014-Apr-06 22:33N 35°58' W 025°57'  

Dump ship's entire track history

sailing weather and tide predictions

Iron Queen — MVNW9 — position and weather